createdAt,value
2023-04-26T00:01:30.885Z,98394.91
2023-04-26T00:03:57.724Z,98399.25
2023-04-26T00:06:24.501Z,98401.81
2023-04-26T00:08:51.637Z,98394.13
2023-04-26T00:11:18.455Z,98390.75
2023-04-26T00:13:44.993Z,98402.88
2023-04-26T00:16:13.400Z,98385.72
2023-04-26T00:18:40.104Z,98390.97
2023-04-26T00:21:07.087Z,98399.44
2023-04-26T00:23:33.651Z,98390.91
2023-04-26T00:26:00.213Z,98402.03
2023-04-26T00:28:26.804Z,98396.97
2023-04-26T00:30:53.370Z,98393.53
2023-04-26T00:33:19.909Z,98396.97
2023-04-26T00:35:46.495Z,98403.84
2023-04-26T00:38:13.000Z,98400.44
2023-04-26T00:40:39.638Z,98398.69
2023-04-26T00:43:06.673Z,98403.84
2023-04-26T00:45:34.372Z,98401.22
2023-04-26T00:48:02.093Z,98398.69
2023-04-26T00:50:30.037Z,98398.66
2023-04-26T00:52:59.061Z,98387.66
2023-04-26T00:55:27.358Z,98396.22
2023-04-26T00:57:54.000Z,98400.47
2023-04-26T01:00:21.494Z,98397.91
2023-04-26T01:02:48.464Z,98387.75
2023-04-26T01:05:15.120Z,98387.75
2023-04-26T01:07:41.727Z,98393.72
2023-04-26T01:10:10.113Z,98394.59
2023-04-26T01:12:38.953Z,98379.22
2023-04-26T01:15:05.985Z,98393.72
2023-04-26T01:17:32.709Z,98383.44
2023-04-26T01:19:59.293Z,98376.63
2023-04-26T01:22:25.947Z,98383.50
2023-04-26T01:24:55.056Z,98392.06
2023-04-26T01:27:21.691Z,98386.09
2023-04-26T01:29:48.274Z,98383.53
2023-04-26T01:32:14.847Z,98380.94
2023-04-26T01:34:41.439Z,98374.94
2023-04-26T01:37:08.093Z,98374.94
2023-04-26T01:39:36.643Z,98368.06
2023-04-26T01:42:04.632Z,98369.78
2023-04-26T01:44:31.453Z,98362.94
2023-04-26T01:46:57.985Z,98364.63
2023-04-26T01:49:24.635Z,98358.69
2023-04-26T01:51:51.708Z,98367.19
2023-04-26T01:54:18.217Z,98366.28
2023-04-26T01:56:44.779Z,98347.41
2023-04-26T01:59:11.385Z,98352.53
2023-04-26T02:01:37.954Z,98365.38
2023-04-26T02:04:06.329Z,98355.03
2023-04-26T02:06:33.048Z,98343.00
2023-04-26T02:08:59.577Z,98341.31
2023-04-26T02:11:27.043Z,98338.66
2023-04-26T02:13:53.941Z,98337.81
2023-04-26T02:16:21.452Z,98341.22
2023-04-26T02:18:49.780Z,98344.63
2023-04-26T02:21:20.606Z,98336.91
2023-04-26T02:23:47.198Z,98342.03
2023-04-26T02:26:14.372Z,98347.19
2023-04-26T02:28:42.102Z,98337.81
2023-04-26T02:31:08.970Z,98337.78
2023-04-26T02:33:35.994Z,98332.59
2023-04-26T02:36:04.964Z,98333.47
2023-04-26T02:38:33.942Z,98319.75
2023-04-26T02:41:02.028Z,98324.09
2023-04-26T02:43:28.679Z,98324.06
2023-04-26T02:45:55.366Z,98324.97
2023-04-26T02:48:21.935Z,98326.69
2023-04-26T02:50:48.561Z,98321.53
2023-04-26T02:53:15.955Z,98329.25
2023-04-26T02:55:43.527Z,98321.53
2023-04-26T02:58:10.082Z,98332.69
2023-04-26T03:00:36.839Z,98322.38
2023-04-26T03:03:03.665Z,98328.41
2023-04-26T03:05:30.390Z,98326.66
2023-04-26T03:07:56.928Z,98329.25
2023-04-26T03:10:23.524Z,98330.13
2023-04-26T03:12:50.240Z,98316.44
2023-04-26T03:15:16.878Z,98325.81
2023-04-26T03:17:43.597Z,98325.81
2023-04-26T03:20:11.143Z,98323.22
2023-04-26T03:22:37.769Z,98313.81
2023-04-26T03:25:05.461Z,98317.22
2023-04-26T03:27:31.976Z,98299.28
2023-04-26T03:29:58.600Z,98309.47
2023-04-26T03:32:25.383Z,98300.97
2023-04-26T03:34:52.048Z,98304.34
2023-04-26T03:37:18.546Z,98306.91
2023-04-26T03:39:45.130Z,98303.50
2023-04-26T03:42:11.646Z,98300.88
2023-04-26T03:44:38.163Z,98301.75
2023-04-26T03:47:05.564Z,98298.25
2023-04-26T03:49:32.263Z,98302.59
2023-04-26T03:51:58.855Z,98301.72
2023-04-26T03:54:25.420Z,98300.03
2023-04-26T03:56:51.947Z,98306.00
2023-04-26T03:59:18.478Z,98299.19
2023-04-26T04:01:45.021Z,98302.56
2023-04-26T04:04:11.851Z,98312.84
2023-04-26T04:06:38.659Z,98308.47
2023-04-26T04:09:08.221Z,98314.44
2023-04-26T04:11:34.887Z,98305.81
2023-04-26T04:14:02.679Z,98313.56
2023-04-26T04:16:29.286Z,98314.41
2023-04-26T04:18:55.958Z,98322.09
2023-04-26T04:21:22.475Z,98323.88
2023-04-26T04:23:58.092Z,98334.97
2023-04-26T04:26:24.624Z,98328.09
2023-04-26T04:28:52.082Z,98320.38
2023-04-26T04:31:18.940Z,98318.69
2023-04-26T04:33:45.518Z,98332.41
2023-04-26T04:36:12.822Z,98329.00
2023-04-26T04:38:39.710Z,98321.25
2023-04-26T04:41:06.240Z,98318.72
2023-04-26T04:43:33.024Z,98325.44
2023-04-26T04:45:59.581Z,98321.19
2023-04-26T04:48:26.222Z,98325.50
2023-04-26T04:50:52.775Z,98327.16
2023-04-26T04:53:56.832Z,98336.59
2023-04-26T04:56:23.701Z,98325.44
2023-04-26T04:58:50.482Z,98322.84
2023-04-26T05:01:17.231Z,98328.00
2023-04-26T05:03:43.976Z,98318.59
2023-04-26T05:06:10.726Z,98328.88
2023-04-26T05:08:37.299Z,98324.56
2023-04-26T05:11:03.839Z,98331.38
2023-04-26T05:13:30.397Z,98330.53
2023-04-26T05:15:57.048Z,98331.38
2023-04-26T05:18:23.613Z,98325.34
2023-04-26T05:20:50.544Z,98331.31
2023-04-26T05:23:17.188Z,98331.34
2023-04-26T05:25:43.720Z,98325.22
2023-04-26T05:28:12.714Z,98329.53
2023-04-26T05:30:39.657Z,98325.25
2023-04-26T05:33:06.832Z,98338.13
2023-04-26T05:35:33.717Z,98343.25
2023-04-26T05:38:00.341Z,98325.31
2023-04-26T05:40:26.933Z,98332.16
2023-04-26T05:42:53.522Z,98322.78
2023-04-26T05:45:20.133Z,98331.31
2023-04-26T05:47:47.657Z,98334.69
2023-04-26T05:50:14.273Z,98333.84
2023-04-26T05:52:40.937Z,98332.94
2023-04-26T05:55:08.058Z,98326.16
2023-04-26T05:57:34.728Z,98324.44
2023-04-26T06:00:01.479Z,98333.91
2023-04-26T06:02:28.155Z,98333.91
2023-04-26T06:04:55.024Z,98331.44
2023-04-26T06:07:21.791Z,98328.88
2023-04-26T06:09:48.636Z,98332.22
2023-04-26T06:12:15.163Z,98333.16
2023-04-26T06:14:41.762Z,98336.53
2023-04-26T06:17:08.931Z,98339.09
2023-04-26T06:19:35.776Z,98334.75
2023-04-26T06:22:02.342Z,98327.88
2023-04-26T06:24:28.849Z,98329.50
2023-04-26T06:26:55.445Z,98331.16
2023-04-26T06:29:22.002Z,98328.59
2023-04-26T06:31:48.647Z,98321.75
2023-04-26T06:34:15.203Z,98333.75
2023-04-26T06:36:41.865Z,98331.25
2023-04-26T06:39:08.387Z,98333.72
2023-04-26T06:41:34.935Z,98332.06
2023-04-26T06:44:01.537Z,98336.34
2023-04-26T06:46:28.149Z,98339.75
2023-04-26T06:48:57.943Z,98337.19
2023-04-26T06:51:24.706Z,98346.66
2023-04-26T06:53:52.470Z,98348.38
2023-04-26T06:56:19.306Z,98355.19
2023-04-26T06:59:05.763Z,98349.06
2023-04-26T07:01:36.734Z,98365.09
2023-04-26T07:04:07.363Z,98354.56
2023-04-26T07:06:34.740Z,98352.63
2023-04-26T07:09:02.847Z,98352.50
2023-04-26T07:11:29.776Z,98344.72
2023-04-26T07:13:57.091Z,98347.06
2023-04-26T07:16:23.927Z,98349.59
2023-04-26T07:18:58.523Z,98342.69
2023-04-26T07:21:26.751Z,98350.28
2023-04-26T07:23:55.615Z,98347.56
2023-04-26T07:26:23.463Z,98350.03
2023-04-26T07:28:53.343Z,98347.34
2023-04-26T07:31:20.583Z,98346.47
2023-04-26T07:33:47.320Z,98363.53
2023-04-26T07:36:13.964Z,98354.06
2023-04-26T07:38:40.538Z,98360.00
2023-04-26T07:41:07.260Z,98361.00
2023-04-26T07:43:33.807Z,98358.47
2023-04-26T07:46:03.182Z,98359.31
2023-04-26T07:48:29.898Z,98357.47
2023-04-26T07:50:56.630Z,98359.81
2023-04-26T07:53:23.295Z,98356.28
2023-04-26T07:55:52.955Z,98354.38
2023-04-26T07:58:19.824Z,98362.78
2023-04-26T08:00:46.344Z,98365.25
2023-04-26T08:03:16.748Z,98366.13
2023-04-26T08:05:43.898Z,98359.97
2023-04-26T08:08:10.957Z,98359.22
2023-04-26T08:10:40.622Z,98359.19
2023-04-26T08:13:19.199Z,98358.13
2023-04-26T08:15:45.791Z,98365.84
2023-04-26T08:18:12.410Z,98364.06
2023-04-26T08:20:57.405Z,98375.25
2023-04-26T08:23:23.997Z,98369.19
2023-04-26T08:25:50.613Z,98366.66
2023-04-26T08:28:17.243Z,98360.47
2023-04-26T08:30:44.010Z,98362.09
2023-04-26T08:33:10.789Z,98353.47
2023-04-26T08:35:37.451Z,98350.13
2023-04-26T08:38:04.048Z,98352.63
2023-04-26T08:40:31.611Z,98345.78
2023-04-26T08:42:58.251Z,98362.16
2023-04-26T08:45:25.059Z,98357.16
2023-04-26T08:47:56.972Z,98353.75
2023-04-26T08:50:24.263Z,98358.22
2023-04-26T08:52:52.167Z,98366.03
2023-04-26T08:55:22.514Z,98366.25
2023-04-26T08:57:50.747Z,98366.31
2023-04-26T09:00:18.844Z,98363.03
2023-04-26T09:02:51.454Z,98360.56
2023-04-26T09:05:23.554Z,98361.44
2023-04-26T09:07:51.260Z,98374.28
2023-04-26T09:10:22.094Z,98364.97
2023-04-26T09:12:55.991Z,98366.63
2023-04-26T09:15:25.018Z,98371.88
2023-04-26T09:17:52.385Z,98375.38
2023-04-26T09:20:26.414Z,98366.75
2023-04-26T09:23:09.789Z,98371.13
2023-04-26T09:25:36.656Z,98370.34
2023-04-26T09:28:04.679Z,98380.78
2023-04-26T09:30:31.428Z,98379.09
2023-04-26T09:33:07.008Z,98378.28
2023-04-26T09:35:41.861Z,98377.38
2023-04-26T09:38:13.544Z,98378.44
2023-04-26T09:40:46.115Z,98384.44
2023-04-26T09:43:14.256Z,98388.66
2023-04-26T09:45:53.985Z,98381.88
2023-04-26T09:48:32.065Z,98386.03
2023-04-26T09:51:04.648Z,98389.50
2023-04-26T09:53:37.241Z,98394.69
2023-04-26T09:56:08.614Z,98386.94
2023-04-26T09:58:38.645Z,98385.22
2023-04-26T10:01:07.116Z,98391.25
2023-04-26T10:03:37.032Z,98398.19
2023-04-26T10:06:04.610Z,98393.84
2023-04-26T10:08:32.979Z,98393.84
2023-04-26T10:11:02.250Z,98386.19
2023-04-26T10:13:29.165Z,98393.97
2023-04-26T10:15:56.575Z,98404.19
2023-04-26T10:18:23.134Z,98404.28
2023-04-26T10:20:53.052Z,98414.81
2023-04-26T10:23:27.359Z,98410.50
2023-04-26T10:25:55.098Z,98406.28
2023-04-26T10:28:44.752Z,98405.56
2023-04-26T10:31:11.795Z,98409.91
2023-04-26T10:33:38.369Z,98404.00
2023-04-26T10:36:08.146Z,98413.38
2023-04-26T10:38:37.161Z,98416.00
2023-04-26T10:41:48.839Z,98415.94
2023-04-26T10:44:40.062Z,98414.22
2023-04-26T10:47:20.375Z,98414.22
2023-04-26T10:49:48.294Z,98413.34
2023-04-26T10:52:20.461Z,98424.47
2023-04-26T10:54:57.441Z,98420.19
2023-04-26T10:57:47.891Z,98428.78
2023-04-26T11:00:32.319Z,98421.88
2023-04-26T11:03:03.981Z,98429.59
2023-04-26T11:05:51.032Z,98430.44
2023-04-26T11:08:20.558Z,98426.13
2023-04-26T11:10:53.004Z,98439.00
2023-04-26T11:13:20.423Z,98425.31
2023-04-26T11:15:49.088Z,98431.22
2023-04-26T11:18:19.841Z,98433.72
2023-04-26T11:20:46.702Z,98433.69
2023-04-26T11:23:13.398Z,98432.78
2023-04-26T11:25:40.299Z,98436.19
2023-04-26T11:28:06.988Z,98442.16
2023-04-26T11:30:33.546Z,98431.84
2023-04-26T11:33:01.535Z,98436.16
2023-04-26T11:35:29.686Z,98430.91
2023-04-26T11:38:02.260Z,98430.78
2023-04-26T11:40:33.158Z,98424.88
2023-04-26T11:43:06.618Z,98433.44
2023-04-26T11:45:35.041Z,98442.88
2023-04-26T11:48:07.750Z,98420.53
2023-04-26T11:50:39.104Z,98431.69
2023-04-26T11:53:08.045Z,98431.69
2023-04-26T11:55:35.943Z,98422.31
2023-04-26T11:58:11.478Z,98418.75
2023-04-26T12:00:38.862Z,98432.41
2023-04-26T12:03:10.254Z,98425.56
2023-04-26T12:05:37.941Z,98428.84
2023-04-26T12:08:04.787Z,98419.22
2023-04-26T12:10:38.668Z,98414.03
2023-04-26T12:13:05.310Z,98424.06
2023-04-26T12:15:33.197Z,98426.59
2023-04-26T12:18:11.345Z,98426.50
2023-04-26T12:20:40.670Z,98417.81
2023-04-26T12:23:10.070Z,98417.81
2023-04-26T12:25:39.389Z,98423.66
2023-04-26T12:28:12.422Z,98422.66
2023-04-26T12:30:40.354Z,98422.56
2023-04-26T12:33:16.230Z,98416.38
2023-04-26T12:35:43.561Z,98419.66
2023-04-26T12:38:10.418Z,98417.47
2023-04-26T12:40:37.283Z,98413.81
2023-04-26T12:43:04.040Z,98414.50
2023-04-26T12:45:30.757Z,98417.84
2023-04-26T12:47:57.371Z,98414.97
2023-04-26T12:50:24.175Z,98408.56
2023-04-26T12:52:50.753Z,98409.88
2023-04-26T12:55:17.281Z,98413.63
2023-04-26T12:57:45.550Z,98413.41
2023-04-26T13:00:19.762Z,98421.25
2023-04-26T13:02:46.771Z,98407.94
2023-04-26T13:05:14.263Z,98411.75
2023-04-26T13:07:43.493Z,98421.47
2023-04-26T13:10:12.876Z,98411.88
2023-04-26T13:12:40.181Z,98394.75
2023-04-26T13:15:08.796Z,98409.22
2023-04-26T13:17:37.412Z,98419.31
2023-04-26T13:20:07.981Z,98411.50
2023-04-26T13:22:34.659Z,98406.56
2023-04-26T13:25:01.248Z,98406.75
2023-04-26T13:27:30.517Z,98403.47
2023-04-26T13:29:58.416Z,98402.88
2023-04-26T13:32:25.129Z,98404.06
2023-04-26T13:34:51.840Z,98410.94
2023-04-26T13:37:21.384Z,98399.69
2023-04-26T13:39:48.618Z,98406.66
2023-04-26T13:42:16.366Z,98399.03
2023-04-26T13:44:43.283Z,98407.84
2023-04-26T13:47:10.056Z,98395.94
2023-04-26T13:49:37.223Z,98405.75
2023-04-26T13:52:03.811Z,98408.41
2023-04-26T13:54:30.625Z,98411.16
2023-04-26T13:56:58.282Z,98409.59
2023-04-26T13:59:24.847Z,98407.06
2023-04-26T14:01:54.252Z,98403.72
2023-04-26T14:04:22.194Z,98396.03
2023-04-26T14:06:48.835Z,98388.34
2023-04-26T14:09:16.189Z,98406.28
2023-04-26T14:11:42.842Z,98399.28
2023-04-26T14:14:09.376Z,98404.34
2023-04-26T14:16:36.063Z,98413.00
2023-04-26T14:19:02.683Z,98403.66
2023-04-26T14:21:29.204Z,98397.94
2023-04-26T14:23:56.531Z,98399.78
2023-04-26T14:26:25.998Z,98405.94
2023-04-26T14:28:52.629Z,98406.06
2023-04-26T14:31:19.916Z,98414.69
2023-04-26T14:33:46.583Z,98405.31
2023-04-26T14:36:13.218Z,98404.41
2023-04-26T14:38:43.733Z,98406.13
2023-04-26T14:41:18.022Z,98400.97
2023-04-26T14:43:46.314Z,98407.19
2023-04-26T14:46:13.455Z,98419.06
2023-04-26T14:48:40.142Z,98420.00
2023-04-26T14:51:06.812Z,98420.84
2023-04-26T14:53:33.320Z,98418.34
2023-04-26T14:56:00.709Z,98419.31
2023-04-26T14:58:27.751Z,98434.84
2023-04-26T15:00:54.383Z,98429.72
2023-04-26T15:03:21.120Z,98431.53
2023-04-26T15:05:47.941Z,98427.25
2023-04-26T15:08:14.551Z,98419.66
2023-04-26T15:10:41.089Z,98423.91
2023-04-26T15:13:07.773Z,98427.38
2023-04-26T15:15:34.321Z,98423.88
2023-04-26T15:18:01.888Z,98425.59
2023-04-26T15:20:28.589Z,98423.91
2023-04-26T15:22:55.251Z,98429.97
2023-04-26T15:25:21.838Z,98417.19
2023-04-26T15:27:50.308Z,98423.25
2023-04-26T15:30:17.245Z,98422.41
2023-04-26T15:32:47.796Z,98426.69
2023-04-26T15:35:15.421Z,98426.75
2023-04-26T15:37:42.010Z,98426.78
2023-04-26T15:40:10.524Z,98426.78
2023-04-26T15:42:37.594Z,98418.19
2023-04-26T15:45:04.364Z,98422.47
2023-04-26T15:47:31.141Z,98415.66
2023-04-26T15:50:03.550Z,98408.81
2023-04-26T15:52:30.810Z,98415.59
2023-04-26T15:54:57.382Z,98422.47
2023-04-26T15:57:23.961Z,98424.19
2023-04-26T15:59:51.127Z,98427.66
2023-04-26T16:02:17.842Z,98430.28
2023-04-26T16:04:44.708Z,98426.00
2023-04-26T16:07:11.764Z,98432.94
2023-04-26T16:09:38.421Z,98436.41
2023-04-26T16:12:05.619Z,98432.16
2023-04-26T16:14:35.040Z,98433.06
2023-04-26T16:17:03.498Z,98433.97
2023-04-26T16:19:30.068Z,98442.63
2023-04-26T16:21:56.761Z,98433.22
2023-04-26T16:24:24.367Z,98435.81
2023-04-26T16:26:50.906Z,98447.91
2023-04-26T16:29:17.733Z,98449.63
2023-04-26T16:31:44.562Z,98452.22
2023-04-26T16:34:11.452Z,98443.66
2023-04-26T16:36:38.027Z,98448.81
2023-04-26T16:39:04.553Z,98448.88
2023-04-26T16:41:31.056Z,98454.03
2023-04-26T16:43:57.645Z,98449.78
2023-04-26T16:46:24.204Z,98453.22
2023-04-26T16:48:51.032Z,98454.09
2023-04-26T16:51:17.806Z,98449.78
2023-04-26T16:53:44.312Z,98454.09
2023-04-26T16:56:11.057Z,98449.78
2023-04-26T16:58:37.805Z,98457.53
2023-04-26T17:01:04.814Z,98461.84
2023-04-26T17:03:31.832Z,98456.72
2023-04-26T17:05:58.777Z,98458.47
2023-04-26T17:08:25.918Z,98461.03
2023-04-26T17:10:52.791Z,98460.19
2023-04-26T17:13:19.907Z,98467.09
2023-04-26T17:15:46.833Z,98466.28
2023-04-26T17:18:13.756Z,98464.53
2023-04-26T17:20:41.187Z,98473.16
2023-04-26T17:23:08.679Z,98479.16
2023-04-26T17:25:35.811Z,98471.47
2023-04-26T17:28:02.421Z,98468.94
2023-04-26T17:30:29.075Z,98474.13
2023-04-26T17:32:56.003Z,98476.75
2023-04-26T17:35:22.609Z,98480.22
2023-04-26T17:37:50.460Z,98481.16
2023-04-26T17:40:18.582Z,98483.72
2023-04-26T17:42:46.240Z,98486.38
2023-04-26T17:45:14.031Z,98489.00
2023-04-26T17:47:45.468Z,98489.06
2023-04-26T17:50:12.490Z,98489.97
2023-04-26T17:52:39.081Z,98495.22
2023-04-26T17:55:08.135Z,98497.84
2023-04-26T17:57:34.723Z,98499.59
2023-04-26T18:00:01.375Z,98508.22
2023-04-26T18:02:28.221Z,98507.41
2023-04-26T18:04:55.199Z,98509.16
2023-04-26T18:07:21.997Z,98504.06
2023-04-26T18:09:48.526Z,98512.69
2023-04-26T18:12:15.439Z,98510.97
2023-04-26T18:14:45.141Z,98518.75
2023-04-26T18:17:15.370Z,98522.19
2023-04-26T18:19:42.672Z,98519.63
2023-04-26T18:22:09.403Z,98530.78
2023-04-26T18:24:35.994Z,98530.78
2023-04-26T18:27:03.194Z,98535.94
2023-04-26T18:29:30.201Z,98528.25
2023-04-26T18:31:56.825Z,98533.38
2023-04-26T18:34:23.561Z,98541.97
2023-04-26T18:36:50.123Z,98547.94
2023-04-26T18:39:16.759Z,98539.38
2023-04-26T18:41:43.457Z,98537.66
2023-04-26T18:44:15.966Z,98532.50
2023-04-26T18:46:43.137Z,98538.53
2023-04-26T18:49:10.094Z,98527.34
2023-04-26T18:51:36.724Z,98528.22
2023-04-26T18:54:03.374Z,98532.53
2023-04-26T18:56:30.094Z,98537.63
2023-04-26T18:58:57.159Z,98556.56
2023-04-26T19:01:24.123Z,98554.97
2023-04-26T19:03:51.016Z,98557.59
2023-04-26T19:06:17.702Z,98551.75
2023-04-26T19:08:45.083Z,98565.59
2023-04-26T19:11:12.411Z,98564.72
2023-04-26T19:13:40.176Z,98563.03
2023-04-26T19:16:07.766Z,98563.94
2023-04-26T19:18:36.064Z,98564.03
2023-04-26T19:21:04.112Z,98565.81
2023-04-26T19:23:30.821Z,98560.72
2023-04-26T19:26:13.804Z,98559.13
2023-04-26T19:28:40.878Z,98564.34
2023-04-26T19:31:07.459Z,98568.63
2023-04-26T19:33:34.129Z,98558.38
2023-04-26T19:36:00.816Z,98564.41
2023-04-26T19:38:27.335Z,98563.56
2023-04-26T19:40:54.179Z,98567.00
2023-04-26T19:43:20.843Z,98571.28
2023-04-26T19:45:47.689Z,98579.00
2023-04-26T19:48:14.421Z,98583.31
2023-04-26T19:50:42.323Z,98583.34
2023-04-26T19:53:10.139Z,98593.63
2023-04-26T19:55:38.048Z,98583.34
2023-04-26T19:58:05.974Z,98590.28
2023-04-26T20:00:38.571Z,98586.03
2023-04-26T20:03:05.750Z,98590.31
2023-04-26T20:05:33.507Z,98592.88
2023-04-26T20:08:00.407Z,98597.22
2023-04-26T20:10:30.420Z,98600.63
2023-04-26T20:12:56.989Z,98603.22
2023-04-26T20:15:24.220Z,98602.41
2023-04-26T20:17:50.993Z,98612.69
2023-04-26T20:20:17.603Z,98610.94
2023-04-26T20:22:44.165Z,98612.69
2023-04-26T20:25:10.992Z,98610.97
2023-04-26T20:27:37.823Z,98607.56
2023-04-26T20:30:04.848Z,98618.66
2023-04-26T20:32:31.563Z,98622.97
2023-04-26T20:34:58.321Z,98630.66
2023-04-26T20:37:24.830Z,98634.06
2023-04-26T20:39:51.431Z,98623.81
2023-04-26T20:42:17.944Z,98634.06
2023-04-26T20:44:44.465Z,98634.88
2023-04-26T20:47:11.055Z,98640.03
2023-04-26T20:49:37.571Z,98626.34
2023-04-26T20:52:04.419Z,98628.91
2023-04-26T20:54:31.836Z,98626.34
2023-04-26T20:56:58.514Z,98622.94
2023-04-26T20:59:25.970Z,98625.50
2023-04-26T21:01:53.700Z,98629.75
2023-04-26T21:04:20.752Z,98625.41
2023-04-26T21:07:06.281Z,98605.75
2023-04-26T21:09:32.857Z,98586.94
2023-04-26T21:11:59.385Z,98576.66
2023-04-26T21:14:26.256Z,98566.41
2023-04-26T21:16:52.776Z,98566.34
2023-04-26T21:19:19.677Z,98577.44
2023-04-26T21:21:46.383Z,98579.19
2023-04-26T21:24:13.169Z,98591.09
2023-04-26T21:26:39.729Z,98609.94
2023-04-26T21:29:07.882Z,98625.28
2023-04-26T21:31:34.959Z,98646.66
2023-04-26T21:34:01.559Z,98658.56
2023-04-26T21:36:28.178Z,98656.91
2023-04-26T21:38:54.732Z,98657.72
2023-04-26T21:41:21.323Z,98662.84
2023-04-26T21:43:47.933Z,98668.84
2023-04-26T21:46:14.501Z,98656.88
2023-04-26T21:48:41.081Z,98665.34
2023-04-26T21:51:07.657Z,98677.31
2023-04-26T21:53:34.221Z,98672.19
2023-04-26T21:56:00.782Z,98675.63
2023-04-26T21:58:27.504Z,98673.03
2023-04-26T22:00:54.055Z,98678.97
2023-04-26T22:03:21.856Z,98679.91
2023-04-26T22:05:48.711Z,98679.00
2023-04-26T22:08:15.468Z,98678.16
2023-04-26T22:10:42.084Z,98678.16
2023-04-26T22:13:08.725Z,98686.63
2023-04-26T22:15:57.001Z,98691.78
2023-04-26T22:18:23.609Z,98695.25
2023-04-26T22:20:50.129Z,98702.88
2023-04-26T22:23:16.778Z,98713.06
2023-04-26T22:25:43.346Z,98726.72
2023-04-26T22:28:09.892Z,98717.38
2023-04-26T22:30:36.446Z,98719.13
2023-04-26T22:33:03.315Z,98715.63
2023-04-26T22:35:30.126Z,98713.16
2023-04-26T22:37:56.805Z,98714.81
2023-04-26T22:40:23.431Z,98708.84
2023-04-26T22:42:49.930Z,98711.41
2023-04-26T22:45:16.515Z,98709.66
2023-04-26T22:47:43.078Z,98709.69
2023-04-26T22:50:10.168Z,98715.72
2023-04-26T22:52:38.225Z,98710.63
2023-04-26T22:55:05.128Z,98714.84
2023-04-26T22:57:31.883Z,98713.13
2023-04-26T22:59:58.422Z,98713.09
2023-04-26T23:02:25.137Z,98706.25
2023-04-26T23:04:51.776Z,98711.28
2023-04-26T23:07:18.330Z,98726.75
2023-04-26T23:09:44.935Z,98723.41
2023-04-26T23:12:11.604Z,98723.25
2023-04-26T23:14:38.103Z,98724.16
2023-04-26T23:17:05.734Z,98720.78
2023-04-26T23:19:33.107Z,98719.88
2023-04-26T23:21:59.805Z,98716.44
2023-04-26T23:24:26.914Z,98721.50
2023-04-26T23:26:53.620Z,98703.66
2023-04-26T23:29:20.264Z,98724.13
2023-04-26T23:31:46.890Z,98724.91
2023-04-26T23:34:13.449Z,98729.88
2023-04-26T23:36:39.946Z,98734.22
2023-04-26T23:39:07.281Z,98746.13
2023-04-26T23:41:33.794Z,98734.25
2023-04-26T23:44:00.315Z,98739.28
2023-04-26T23:46:27.022Z,98743.59
2023-04-26T23:48:53.593Z,98732.53
2023-04-26T23:51:20.120Z,98728.28
2023-04-26T23:53:46.684Z,98733.34
2023-04-26T23:56:13.296Z,98728.28
2023-04-26T23:58:39.892Z,98738.47
